sensor_id;sensor_type;location;lat;lon;timestamp;temperature;humidity
81951;DHT22;71452;52.562;5.642;2023-09-08T00:00:56;21.80;62.60
81951;DHT22;71452;52.562;5.642;2023-09-08T00:03:25;21.80;62.70
81951;DHT22;71452;52.562;5.642;2023-09-08T00:05:57;21.80;62.70
81951;DHT22;71452;52.562;5.642;2023-09-08T00:08:26;21.70;62.70
81951;DHT22;71452;52.562;5.642;2023-09-08T00:10:55;21.70;62.90
81951;DHT22;71452;52.562;5.642;2023-09-08T00:13:24;21.70;62.90
81951;DHT22;71452;52.562;5.642;2023-09-08T00:15:53;21.60;62.90
81951;DHT22;71452;52.562;5.642;2023-09-08T00:18:22;21.60;62.90
81951;DHT22;71452;52.562;5.642;2023-09-08T00:20:51;21.50;63.00
81951;DHT22;71452;52.562;5.642;2023-09-08T00:23:22;21.50;63.10
81951;DHT22;71452;52.562;5.642;2023-09-08T00:25:53;21.50;63.20
81951;DHT22;71452;52.562;5.642;2023-09-08T00:28:22;21.50;63.20
81951;DHT22;71452;52.562;5.642;2023-09-08T00:30:51;21.40;63.40
81951;DHT22;71452;52.562;5.642;2023-09-08T00:33:20;21.40;63.40
81951;DHT22;71452;52.562;5.642;2023-09-08T00:35:49;21.30;63.50
81951;DHT22;71452;52.562;5.642;2023-09-08T00:38:22;21.30;63.60
81951;DHT22;71452;52.562;5.642;2023-09-08T00:40:51;21.20;63.60
81951;DHT22;71452;52.562;5.642;2023-09-08T00:43:20;21.20;63.60
81951;DHT22;71452;52.562;5.642;2023-09-08T00:45:49;21.10;63.60
81951;DHT22;71452;52.562;5.642;2023-09-08T00:48:18;21.10;63.60
81951;DHT22;71452;52.562;5.642;2023-09-08T00:50:47;21.10;63.70
81951;DHT22;71452;52.562;5.642;2023-09-08T00:53:17;21.10;63.70
81951;DHT22;71452;52.562;5.642;2023-09-08T00:55:49;21.10;63.70
81951;DHT22;71452;52.562;5.642;2023-09-08T00:58:19;21.10;63.80
81951;DHT22;71452;52.562;5.642;2023-09-08T01:00:48;21.00;63.80
81951;DHT22;71452;52.562;5.642;2023-09-08T01:03:17;21.00;63.90
81951;DHT22;71452;52.562;5.642;2023-09-08T01:05:47;21.00;63.80
81951;DHT22;71452;52.562;5.642;2023-09-08T01:08:17;21.00;63.80
81951;DHT22;71452;52.562;5.642;2023-09-08T01:10:52;21.00;63.80
81951;DHT22;71452;52.562;5.642;2023-09-08T01:13:22;21.00;63.80
81951;DHT22;71452;52.562;5.642;2023-09-08T01:15:51;21.00;63.80
81951;DHT22;71452;52.562;5.642;2023-09-08T01:18:20;20.90;63.80
81951;DHT22;71452;52.562;5.642;2023-09-08T01:21:20;20.90;63.90
81951;DHT22;71452;52.562;5.642;2023-09-08T01:24:07;20.80;64.00
81951;DHT22;71452;52.562;5.642;2023-09-08T01:26:44;20.80;64.00
81951;DHT22;71452;52.562;5.642;2023-09-08T01:29:14;20.70;64.10
81951;DHT22;71452;52.562;5.642;2023-09-08T01:31:44;20.70;64.20
81951;DHT22;71452;52.562;5.642;2023-09-08T01:34:14;20.60;64.20
81951;DHT22;71452;52.562;5.642;2023-09-08T01:36:43;20.60;64.30
81951;DHT22;71452;52.562;5.642;2023-09-08T01:39:12;20.60;64.30
81951;DHT22;71452;52.562;5.642;2023-09-08T01:41:43;20.60;64.30
81951;DHT22;71452;52.562;5.642;2023-09-08T01:44:13;20.50;64.30
81951;DHT22;71452;52.562;5.642;2023-09-08T01:46:42;20.50;64.40
81951;DHT22;71452;52.562;5.642;2023-09-08T01:49:11;20.50;64.40
81951;DHT22;71452;52.562;5.642;2023-09-08T01:51:40;20.50;64.40
81951;DHT22;71452;52.562;5.642;2023-09-08T01:54:09;20.30;64.60
81951;DHT22;71452;52.562;5.642;2023-09-08T01:56:38;20.30;64.60
81951;DHT22;71452;52.562;5.642;2023-09-08T01:59:10;20.20;64.70
81951;DHT22;71452;52.562;5.642;2023-09-08T02:01:39;20.20;64.80
81951;DHT22;71452;52.562;5.642;2023-09-08T02:04:08;20.10;64.80
81951;DHT22;71452;52.562;5.642;2023-09-08T02:06:37;20.10;64.80
81951;DHT22;71452;52.562;5.642;2023-09-08T02:09:07;20.10;64.80
81951;DHT22;71452;52.562;5.642;2023-09-08T02:11:38;20.10;64.80
81951;DHT22;71452;52.562;5.642;2023-09-08T02:14:10;20.10;64.80
81951;DHT22;71452;52.562;5.642;2023-09-08T02:16:39;20.10;64.80
81951;DHT22;71452;52.562;5.642;2023-09-08T02:19:08;20.10;64.80
81951;DHT22;71452;52.562;5.642;2023-09-08T02:21:37;20.00;64.80
81951;DHT22;71452;52.562;5.642;2023-09-08T02:24:07;20.00;64.80
81951;DHT22;71452;52.562;5.642;2023-09-08T02:26:37;20.00;64.80
81951;DHT22;71452;52.562;5.642;2023-09-08T02:29:06;20.00;64.80
81951;DHT22;71452;52.562;5.642;2023-09-08T02:31:40;20.00;64.80
81951;DHT22;71452;52.562;5.642;2023-09-08T02:34:09;20.00;64.90
81951;DHT22;71452;52.562;5.642;2023-09-08T02:36:39;19.90;65.00
81951;DHT22;71452;52.562;5.642;2023-09-08T02:39:08;19.90;64.90
81951;DHT22;71452;52.562;5.642;2023-09-08T02:41:37;19.90;65.00
81951;DHT22;71452;52.562;5.642;2023-09-08T02:44:06;19.80;65.00
81951;DHT22;71452;52.562;5.642;2023-09-08T02:46:38;19.80;65.10
81951;DHT22;71452;52.562;5.642;2023-09-08T02:49:07;19.70;65.20
81951;DHT22;71452;52.562;5.642;2023-09-08T02:51:36;19.70;65.20
81951;DHT22;71452;52.562;5.642;2023-09-08T02:54:06;19.70;65.20
81951;DHT22;71452;52.562;5.642;2023-09-08T02:56:35;19.70;65.20
81951;DHT22;71452;52.562;5.642;2023-09-08T02:59:04;19.70;65.40
81951;DHT22;71452;52.562;5.642;2023-09-08T03:01:33;19.70;65.40
81951;DHT22;71452;52.562;5.642;2023-09-08T03:04:05;19.70;65.40
81951;DHT22;71452;52.562;5.642;2023-09-08T03:06:35;19.70;65.40
81951;DHT22;71452;52.562;5.642;2023-09-08T03:09:04;19.60;65.40
81951;DHT22;71452;52.562;5.642;2023-09-08T03:11:35;19.60;65.40
81951;DHT22;71452;52.562;5.642;2023-09-08T03:14:07;19.60;65.40
81951;DHT22;71452;52.562;5.642;2023-09-08T03:16:36;19.60;65.50
81951;DHT22;71452;52.562;5.642;2023-09-08T03:19:08;19.50;65.50
81951;DHT22;71452;52.562;5.642;2023-09-08T03:21:37;19.50;65.70
81951;DHT22;71452;52.562;5.642;2023-09-08T03:24:06;19.40;65.80
81951;DHT22;71452;52.562;5.642;2023-09-08T03:26:35;19.40;65.80
81951;DHT22;71452;52.562;5.642;2023-09-08T03:29:06;19.40;65.90
81951;DHT22;71452;52.562;5.642;2023-09-08T03:31:35;19.40;65.90
81951;DHT22;71452;52.562;5.642;2023-09-08T03:34:07;19.40;65.90
81951;DHT22;71452;52.562;5.642;2023-09-08T03:36:36;19.40;66.00
81951;DHT22;71452;52.562;5.642;2023-09-08T03:39:05;19.40;66.00
81951;DHT22;71452;52.562;5.642;2023-09-08T03:41:35;19.40;65.90
81951;DHT22;71452;52.562;5.642;2023-09-08T03:44:05;19.40;65.90
81951;DHT22;71452;52.562;5.642;2023-09-08T03:46:34;19.40;66.00
81951;DHT22;71452;52.562;5.642;2023-09-08T03:49:03;19.30;65.90
81951;DHT22;71452;52.562;5.642;2023-09-08T03:51:36;19.30;66.00
81951;DHT22;71452;52.562;5.642;2023-09-08T03:54:05;19.30;66.00
81951;DHT22;71452;52.562;5.642;2023-09-08T03:56:34;19.30;66.00
81951;DHT22;71452;52.562;5.642;2023-09-08T03:59:03;19.20;66.10
81951;DHT22;71452;52.562;5.642;2023-09-08T04:01:32;19.20;66.10
81951;DHT22;71452;52.562;5.642;2023-09-08T04:04:02;19.20;66.20
81951;DHT22;71452;52.562;5.642;2023-09-08T04:06:31;19.10;66.40
81951;DHT22;71452;52.562;5.642;2023-09-08T04:09:03;19.10;66.90
81951;DHT22;71452;52.562;5.642;2023-09-08T04:11:32;19.00;67.00
81951;DHT22;71452;52.562;5.642;2023-09-08T04:14:01;19.00;67.30
81951;DHT22;71452;52.562;5.642;2023-09-08T04:16:30;18.90;67.70
81951;DHT22;71452;52.562;5.642;2023-09-08T04:18:59;18.80;67.70
81951;DHT22;71452;52.562;5.642;2023-09-08T04:21:28;18.80;68.00
81951;DHT22;71452;52.562;5.642;2023-09-08T04:23:57;18.70;68.00
81951;DHT22;71452;52.562;5.642;2023-09-08T04:26:29;18.70;68.00
81951;DHT22;71452;52.562;5.642;2023-09-08T04:28:58;18.70;68.20
81951;DHT22;71452;52.562;5.642;2023-09-08T04:31:27;18.60;68.10
81951;DHT22;71452;52.562;5.642;2023-09-08T04:33:56;18.60;68.00
81951;DHT22;71452;52.562;5.642;2023-09-08T04:36:25;18.60;68.00
81951;DHT22;71452;52.562;5.642;2023-09-08T04:38:56;18.50;67.90
81951;DHT22;71452;52.562;5.642;2023-09-08T04:41:27;18.50;67.80
81951;DHT22;71452;52.562;5.642;2023-09-08T04:43:56;18.50;67.80
81951;DHT22;71452;52.562;5.642;2023-09-08T04:46:26;18.50;67.80
81951;DHT22;71452;52.562;5.642;2023-09-08T04:48:55;18.50;67.80
81951;DHT22;71452;52.562;5.642;2023-09-08T04:51:24;18.50;67.70
81951;DHT22;71452;52.562;5.642;2023-09-08T04:53:53;18.50;67.70
81951;DHT22;71452;52.562;5.642;2023-09-08T04:56:22;18.40;67.70
81951;DHT22;71452;52.562;5.642;2023-09-08T04:58:54;18.40;67.70
81951;DHT22;71452;52.562;5.642;2023-09-08T05:01:25;18.40;67.90
81951;DHT22;71452;52.562;5.642;2023-09-08T05:03:56;18.30;67.90
81951;DHT22;71452;52.562;5.642;2023-09-08T05:06:25;18.30;68.20
81951;DHT22;71452;52.562;5.642;2023-09-08T05:08:54;18.20;68.30
81951;DHT22;71452;52.562;5.642;2023-09-08T05:11:24;18.20;68.40
81951;DHT22;71452;52.562;5.642;2023-09-08T05:13:55;18.20;68.40
81951;DHT22;71452;52.562;5.642;2023-09-08T05:16:25;18.20;68.70
81951;DHT22;71452;52.562;5.642;2023-09-08T05:19:04;18.10;68.50
81951;DHT22;71452;52.562;5.642;2023-09-08T05:21:34;18.20;68.60
81951;DHT22;71452;52.562;5.642;2023-09-08T05:24:04;18.10;68.70
81951;DHT22;71452;52.562;5.642;2023-09-08T05:26:35;18.20;68.50
81951;DHT22;71452;52.562;5.642;2023-09-08T05:29:07;18.20;68.50
81951;DHT22;71452;52.562;5.642;2023-09-08T05:31:37;18.20;68.60
81951;DHT22;71452;52.562;5.642;2023-09-08T05:34:07;18.20;68.60
81951;DHT22;71452;52.562;5.642;2023-09-08T05:36:36;18.20;68.60
81951;DHT22;71452;52.562;5.642;2023-09-08T05:39:07;18.30;68.60
81951;DHT22;71452;52.562;5.642;2023-09-08T05:41:36;18.30;68.50
81951;DHT22;71452;52.562;5.642;2023-09-08T05:44:09;18.30;68.70
81951;DHT22;71452;52.562;5.642;2023-09-08T05:46:39;18.30;69.00
81951;DHT22;71452;52.562;5.642;2023-09-08T05:49:08;18.20;68.90
81951;DHT22;71452;52.562;5.642;2023-09-08T05:51:37;18.30;69.00
81951;DHT22;71452;52.562;5.642;2023-09-08T05:54:06;18.30;68.90
81951;DHT22;71452;52.562;5.642;2023-09-08T05:56:37;18.40;68.70
81951;DHT22;71452;52.562;5.642;2023-09-08T05:59:08;18.50;68.80
81951;DHT22;71452;52.562;5.642;2023-09-08T06:01:38;18.50;68.70
81951;DHT22;71452;52.562;5.642;2023-09-08T06:04:10;18.60;68.70
81951;DHT22;71452;52.562;5.642;2023-09-08T06:06:39;18.80;68.70
81951;DHT22;71452;52.562;5.642;2023-09-08T06:09:08;19.10;68.60
81951;DHT22;71452;52.562;5.642;2023-09-08T06:11:38;19.30;68.40
81951;DHT22;71452;52.562;5.642;2023-09-08T06:14:09;19.50;68.00
81951;DHT22;71452;52.562;5.642;2023-09-08T06:16:40;19.90;67.80
81951;DHT22;71452;52.562;5.642;2023-09-08T06:19:11;20.10;67.50
81951;DHT22;71452;52.562;5.642;2023-09-08T06:21:41;20.40;67.10
81951;DHT22;71452;52.562;5.642;2023-09-08T06:24:10;20.60;66.80
81951;DHT22;71452;52.562;5.642;2023-09-08T06:26:39;20.90;66.50
81951;DHT22;71452;52.562;5.642;2023-09-08T06:29:11;21.10;66.10
81951;DHT22;71452;52.562;5.642;2023-09-08T06:31:40;21.30;65.80
81951;DHT22;71452;52.562;5.642;2023-09-08T06:34:09;21.50;65.60
81951;DHT22;71452;52.562;5.642;2023-09-08T06:36:38;21.70;65.30
81951;DHT22;71452;52.562;5.642;2023-09-08T06:39:08;21.90;64.90
81951;DHT22;71452;52.562;5.642;2023-09-08T06:41:38;22.00;64.60
81951;DHT22;71452;52.562;5.642;2023-09-08T06:44:12;22.20;64.50
81951;DHT22;71452;52.562;5.642;2023-09-08T06:46:41;22.30;64.30
81951;DHT22;71452;52.562;5.642;2023-09-08T06:49:10;22.50;64.10
81951;DHT22;71452;52.562;5.642;2023-09-08T06:51:39;22.60;63.90
81951;DHT22;71452;52.562;5.642;2023-09-08T06:54:08;22.70;63.70
81951;DHT22;71452;52.562;5.642;2023-09-08T06:56:41;22.90;63.70
81951;DHT22;71452;52.562;5.642;2023-09-08T06:59:13;23.10;63.30
81951;DHT22;71452;52.562;5.642;2023-09-08T07:01:43;23.30;63.00
81951;DHT22;71452;52.562;5.642;2023-09-08T07:04:13;23.40;62.70
81951;DHT22;71452;52.562;5.642;2023-09-08T07:06:42;23.60;62.60
81951;DHT22;71452;52.562;5.642;2023-09-08T07:09:13;23.70;61.70
81951;DHT22;71452;52.562;5.642;2023-09-08T07:11:43;23.80;61.40
81951;DHT22;71452;52.562;5.642;2023-09-08T07:14:15;23.90;61.10
81951;DHT22;71452;52.562;5.642;2023-09-08T07:16:44;24.00;61.00
81951;DHT22;71452;52.562;5.642;2023-09-08T07:19:13;24.00;60.90
81951;DHT22;71452;52.562;5.642;2023-09-08T07:21:43;24.20;61.00
81951;DHT22;71452;52.562;5.642;2023-09-08T07:24:12;24.20;60.80
81951;DHT22;71452;52.562;5.642;2023-09-08T07:26:41;24.40;60.40
81951;DHT22;71452;52.562;5.642;2023-09-08T07:29:10;24.40;60.40
81951;DHT22;71452;52.562;5.642;2023-09-08T07:31:42;24.50;60.40
81951;DHT22;71452;52.562;5.642;2023-09-08T07:34:11;24.70;60.20
81951;DHT22;71452;52.562;5.642;2023-09-08T07:36:40;24.80;60.10
81951;DHT22;71452;52.562;5.642;2023-09-08T07:39:09;25.00;59.70
81951;DHT22;71452;52.562;5.642;2023-09-08T07:41:39;25.00;59.70
81951;DHT22;71452;52.562;5.642;2023-09-08T07:44:12;25.20;59.50
81951;DHT22;71452;52.562;5.642;2023-09-08T07:46:43;25.20;59.30
81951;DHT22;71452;52.562;5.642;2023-09-08T07:49:15;25.30;59.50
81951;DHT22;71452;52.562;5.642;2023-09-08T07:51:45;25.50;59.30
81951;DHT22;71452;52.562;5.642;2023-09-08T07:54:14;25.60;59.00
81951;DHT22;71452;52.562;5.642;2023-09-08T07:56:43;25.60;58.60
81951;DHT22;71452;52.562;5.642;2023-09-08T07:59:12;25.60;58.60
81951;DHT22;71452;52.562;5.642;2023-09-08T08:01:43;25.60;58.70
81951;DHT22;71452;52.562;5.642;2023-09-08T08:04:12;25.80;59.00
81951;DHT22;71452;52.562;5.642;2023-09-08T08:06:41;25.90;59.00
81951;DHT22;71452;52.562;5.642;2023-09-08T08:09:10;26.00;58.90
81951;DHT22;71452;52.562;5.642;2023-09-08T08:11:40;26.10;58.70
81951;DHT22;71452;52.562;5.642;2023-09-08T08:14:09;26.20;58.50
81951;DHT22;71452;52.562;5.642;2023-09-08T08:16:38;26.40;58.20
81951;DHT22;71452;52.562;5.642;2023-09-08T08:19:10;26.40;58.20
81951;DHT22;71452;52.562;5.642;2023-09-08T08:21:39;26.50;58.20
81951;DHT22;71452;52.562;5.642;2023-09-08T08:24:08;26.50;57.40
81951;DHT22;71452;52.562;5.642;2023-09-08T08:26:37;26.50;57.60
81951;DHT22;71452;52.562;5.642;2023-09-08T08:29:06;26.50;57.40
81951;DHT22;71452;52.562;5.642;2023-09-08T08:31:35;26.60;57.60
81951;DHT22;71452;52.562;5.642;2023-09-08T08:34:04;26.60;57.50
81951;DHT22;71452;52.562;5.642;2023-09-08T08:36:37;26.60;57.60
81951;DHT22;71452;52.562;5.642;2023-09-08T08:39:06;26.60;57.60
81951;DHT22;71452;52.562;5.642;2023-09-08T08:41:35;26.60;57.70
81951;DHT22;71452;52.562;5.642;2023-09-08T08:44:07;26.60;57.50
81951;DHT22;71452;52.562;5.642;2023-09-08T08:46:37;26.60;57.80
81951;DHT22;71452;52.562;5.642;2023-09-08T08:49:06;26.70;57.70
81951;DHT22;71452;52.562;5.642;2023-09-08T08:51:39;26.70;57.60
81951;DHT22;71452;52.562;5.642;2023-09-08T08:54:12;26.80;57.80
81951;DHT22;71452;52.562;5.642;2023-09-08T08:56:42;26.80;57.50
81951;DHT22;71452;52.562;5.642;2023-09-08T08:59:11;26.90;57.50
81951;DHT22;71452;52.562;5.642;2023-09-08T09:01:42;26.90;57.70
81951;DHT22;71452;52.562;5.642;2023-09-08T09:04:12;27.00;57.60
81951;DHT22;71452;52.562;5.642;2023-09-08T09:06:44;27.10;57.40
81951;DHT22;71452;52.562;5.642;2023-09-08T09:09:14;27.20;57.30
81951;DHT22;71452;52.562;5.642;2023-09-08T09:11:43;27.20;57.10
81951;DHT22;71452;52.562;5.642;2023-09-08T09:14:12;27.30;57.20
81951;DHT22;71452;52.562;5.642;2023-09-08T09:16:43;27.30;56.70
81951;DHT22;71452;52.562;5.642;2023-09-08T09:19:18;27.40;57.10
81951;DHT22;71452;52.562;5.642;2023-09-08T09:21:56;27.50;57.10
81951;DHT22;71452;52.562;5.642;2023-09-08T09:24:30;27.50;57.00
81951;DHT22;71452;52.562;5.642;2023-09-08T09:26:56;27.70;56.80
81951;DHT22;71452;52.562;5.642;2023-09-08T09:29:26;27.70;56.90
81951;DHT22;71452;52.562;5.642;2023-09-08T09:31:57;27.70;56.80
81951;DHT22;71452;52.562;5.642;2023-09-08T09:34:26;27.70;56.80
81951;DHT22;71452;52.562;5.642;2023-09-08T09:36:58;27.80;56.70
81951;DHT22;71452;52.562;5.642;2023-09-08T09:39:31;27.80;56.80
81951;DHT22;71452;52.562;5.642;2023-09-08T09:42:02;28.00;56.90
81951;DHT22;71452;52.562;5.642;2023-09-08T09:44:31;28.10;56.70
81951;DHT22;71452;52.562;5.642;2023-09-08T09:47:01;28.20;56.60
81951;DHT22;71452;52.562;5.642;2023-09-08T09:49:30;28.30;56.60
81951;DHT22;71452;52.562;5.642;2023-09-08T09:52:03;28.50;56.50
81951;DHT22;71452;52.562;5.642;2023-09-08T09:54:32;28.60;56.00
81951;DHT22;71452;52.562;5.642;2023-09-08T09:57:01;28.70;56.00
81951;DHT22;71452;52.562;5.642;2023-09-08T09:59:31;28.70;55.90
81951;DHT22;71452;52.562;5.642;2023-09-08T10:02:01;28.90;55.90
81951;DHT22;71452;52.562;5.642;2023-09-08T10:04:31;28.90;55.80
81951;DHT22;71452;52.562;5.642;2023-09-08T10:07:03;29.00;55.50
81951;DHT22;71452;52.562;5.642;2023-09-08T10:09:33;29.10;55.70
81951;DHT22;71452;52.562;5.642;2023-09-08T10:12:04;29.30;55.10
81951;DHT22;71452;52.562;5.642;2023-09-08T10:14:35;29.30;54.90
81951;DHT22;71452;52.562;5.642;2023-09-08T10:17:05;29.30;55.20
81951;DHT22;71452;52.562;5.642;2023-09-08T10:19:37;29.40;55.10
81951;DHT22;71452;52.562;5.642;2023-09-08T10:22:12;29.50;54.80
81951;DHT22;71452;52.562;5.642;2023-09-08T10:24:46;29.50;54.70
81951;DHT22;71452;52.562;5.642;2023-09-08T10:27:16;29.50;55.00
81951;DHT22;71452;52.562;5.642;2023-09-08T10:29:47;29.50;55.10
81951;DHT22;71452;52.562;5.642;2023-09-08T10:32:17;29.70;54.70
81951;DHT22;71452;52.562;5.642;2023-09-08T10:34:47;29.70;54.70
81951;DHT22;71452;52.562;5.642;2023-09-08T10:37:24;29.70;54.80
81951;DHT22;71452;52.562;5.642;2023-09-08T10:39:55;29.80;54.90
81951;DHT22;71452;52.562;5.642;2023-09-08T10:42:25;29.90;54.50
81951;DHT22;71452;52.562;5.642;2023-09-08T10:45:14;30.00;54.60
81951;DHT22;71452;52.562;5.642;2023-09-08T10:47:56;30.00;54.40
81951;DHT22;71452;52.562;5.642;2023-09-08T10:50:32;30.00;54.20
81951;DHT22;71452;52.562;5.642;2023-09-08T10:53:12;30.10;54.50
81951;DHT22;71452;52.562;5.642;2023-09-08T10:55:43;30.30;54.20
81951;DHT22;71452;52.562;5.642;2023-09-08T10:58:20;30.30;54.00
81951;DHT22;71452;52.562;5.642;2023-09-08T11:00:51;30.40;53.70
81951;DHT22;71452;52.562;5.642;2023-09-08T11:03:26;30.50;53.70
81951;DHT22;71452;52.562;5.642;2023-09-08T11:05:57;30.50;53.40
81951;DHT22;71452;52.562;5.642;2023-09-08T11:08:29;30.50;53.70
81951;DHT22;71452;52.562;5.642;2023-09-08T11:10:58;30.50;53.70
81951;DHT22;71452;52.562;5.642;2023-09-08T11:13:27;30.50;53.70
81951;DHT22;71452;52.562;5.642;2023-09-08T11:15:56;30.50;53.80
81951;DHT22;71452;52.562;5.642;2023-09-08T11:18:26;30.50;53.90
81951;DHT22;71452;52.562;5.642;2023-09-08T11:20:56;30.60;53.70
81951;DHT22;71452;52.562;5.642;2023-09-08T11:23:28;30.70;53.40
81951;DHT22;71452;52.562;5.642;2023-09-08T11:25:57;30.80;53.10
81951;DHT22;71452;52.562;5.642;2023-09-08T11:28:28;30.80;53.10
81951;DHT22;71452;52.562;5.642;2023-09-08T11:30:57;30.90;53.20
81951;DHT22;71452;52.562;5.642;2023-09-08T11:33:26;31.00;53.40
81951;DHT22;71452;52.562;5.642;2023-09-08T11:35:55;31.10;52.90
81951;DHT22;71452;52.562;5.642;2023-09-08T11:38:28;31.10;53.00
81951;DHT22;71452;52.562;5.642;2023-09-08T11:40:58;31.20;52.80
81951;DHT22;71452;52.562;5.642;2023-09-08T11:43:29;31.20;52.80
81951;DHT22;71452;52.562;5.642;2023-09-08T11:45:59;31.20;52.30
81951;DHT22;71452;52.562;5.642;2023-09-08T11:48:28;31.20;52.40
81951;DHT22;71452;52.562;5.642;2023-09-08T11:50:57;31.30;52.40
81951;DHT22;71452;52.562;5.642;2023-09-08T11:53:29;31.40;52.40
81951;DHT22;71452;52.562;5.642;2023-09-08T11:55:59;31.50;52.10
81951;DHT22;71452;52.562;5.642;2023-09-08T11:58:32;31.50;52.10
81951;DHT22;71452;52.562;5.642;2023-09-08T12:01:03;31.60;51.80
81951;DHT22;71452;52.562;5.642;2023-09-08T12:03:32;31.60;52.00
81951;DHT22;71452;52.562;5.642;2023-09-08T12:06:01;31.70;51.80
81951;DHT22;71452;52.562;5.642;2023-09-08T12:08:33;31.70;51.90
81951;DHT22;71452;52.562;5.642;2023-09-08T12:11:02;31.80;51.90
81951;DHT22;71452;52.562;5.642;2023-09-08T12:13:31;31.90;51.70
81951;DHT22;71452;52.562;5.642;2023-09-08T12:16:00;32.00;51.40
81951;DHT22;71452;52.562;5.642;2023-09-08T12:18:39;31.90;51.40
81951;DHT22;71452;52.562;5.642;2023-09-08T12:21:11;32.00;51.10
81951;DHT22;71452;52.562;5.642;2023-09-08T12:23:53;32.00;51.20
81951;DHT22;71452;52.562;5.642;2023-09-08T12:26:25;32.00;51.30
81951;DHT22;71452;52.562;5.642;2023-09-08T12:28:56;32.00;51.30
81951;DHT22;71452;52.562;5.642;2023-09-08T12:31:25;32.00;50.90
81951;DHT22;71452;52.562;5.642;2023-09-08T12:33:54;32.00;50.90
81951;DHT22;71452;52.562;5.642;2023-09-08T12:36:23;32.10;50.90
81951;DHT22;71452;52.562;5.642;2023-09-08T12:38:55;32.20;50.80
81951;DHT22;71452;52.562;5.642;2023-09-08T12:41:24;32.20;50.40
81951;DHT22;71452;52.562;5.642;2023-09-08T12:43:53;32.20;50.20
81951;DHT22;71452;52.562;5.642;2023-09-08T12:46:22;32.20;50.50
81951;DHT22;71452;52.562;5.642;2023-09-08T12:48:51;32.20;50.50
81951;DHT22;71452;52.562;5.642;2023-09-08T12:51:20;32.20;50.50
81951;DHT22;71452;52.562;5.642;2023-09-08T12:53:49;32.30;50.70
81951;DHT22;71452;52.562;5.642;2023-09-08T12:56:21;32.40;50.60
81951;DHT22;71452;52.562;5.642;2023-09-08T12:58:50;32.40;50.50
81951;DHT22;71452;52.562;5.642;2023-09-08T13:01:19;32.40;50.50
81951;DHT22;71452;52.562;5.642;2023-09-08T13:03:48;32.40;50.20
81951;DHT22;71452;52.562;5.642;2023-09-08T13:06:17;32.40;49.80
81951;DHT22;71452;52.562;5.642;2023-09-08T13:08:46;32.40;49.70
81951;DHT22;71452;52.562;5.642;2023-09-08T13:11:15;32.40;49.70
81951;DHT22;71452;52.562;5.642;2023-09-08T13:13:46;32.40;49.80
81951;DHT22;71452;52.562;5.642;2023-09-08T13:16:15;32.40;49.90
81951;DHT22;71452;52.562;5.642;2023-09-08T13:18:46;32.40;50.00
81951;DHT22;71452;52.562;5.642;2023-09-08T13:21:15;32.40;50.10
81951;DHT22;71452;52.562;5.642;2023-09-08T13:23:44;32.40;50.30
81951;DHT22;71452;52.562;5.642;2023-09-08T13:26:13;32.40;50.40
81951;DHT22;71452;52.562;5.642;2023-09-08T13:28:47;32.50;50.50
81951;DHT22;71452;52.562;5.642;2023-09-08T13:31:16;32.50;50.20
81951;DHT22;71452;52.562;5.642;2023-09-08T13:33:45;32.40;50.40
81951;DHT22;71452;52.562;5.642;2023-09-08T13:36:14;32.40;50.60
81951;DHT22;71452;52.562;5.642;2023-09-08T13:38:43;32.40;51.40
81951;DHT22;71452;52.562;5.642;2023-09-08T13:41:12;32.30;51.90
81951;DHT22;71452;52.562;5.642;2023-09-08T13:43:41;32.30;52.20
81951;DHT22;71452;52.562;5.642;2023-09-08T13:46:12;32.20;52.50
81951;DHT22;71452;52.562;5.642;2023-09-08T13:48:42;32.00;52.70
81951;DHT22;71452;52.562;5.642;2023-09-08T13:51:11;31.90;52.70
81951;DHT22;71452;52.562;5.642;2023-09-08T13:53:40;31.80;52.90
81951;DHT22;71452;52.562;5.642;2023-09-08T13:56:09;31.70;52.90
81951;DHT22;71452;52.562;5.642;2023-09-08T13:58:38;31.50;52.90
81951;DHT22;71452;52.562;5.642;2023-09-08T14:01:13;31.40;53.30
81951;DHT22;71452;52.562;5.642;2023-09-08T14:03:43;31.30;53.50
81951;DHT22;71452;52.562;5.642;2023-09-08T14:06:12;31.20;54.00
81951;DHT22;71452;52.562;5.642;2023-09-08T14:08:41;31.10;54.10
81951;DHT22;71452;52.562;5.642;2023-09-08T14:11:10;31.20;53.90
81951;DHT22;71452;52.562;5.642;2023-09-08T14:13:40;31.20;53.90
81951;DHT22;71452;52.562;5.642;2023-09-08T14:16:09;31.20;53.90
81951;DHT22;71452;52.562;5.642;2023-09-08T14:18:41;31.20;53.90
81951;DHT22;71452;52.562;5.642;2023-09-08T14:21:10;31.10;53.90
81951;DHT22;71452;52.562;5.642;2023-09-08T14:23:39;31.10;53.90
81951;DHT22;71452;52.562;5.642;2023-09-08T14:26:08;31.20;53.70
81951;DHT22;71452;52.562;5.642;2023-09-08T14:28:37;31.30;53.60
81951;DHT22;71452;52.562;5.642;2023-09-08T14:31:06;31.30;53.60
81951;DHT22;71452;52.562;5.642;2023-09-08T14:33:36;31.30;53.90
81951;DHT22;71452;52.562;5.642;2023-09-08T14:36:08;31.30;54.00
81951;DHT22;71452;52.562;5.642;2023-09-08T14:38:37;31.20;54.10
81951;DHT22;71452;52.562;5.642;2023-09-08T14:41:06;31.20;54.40
81951;DHT22;71452;52.562;5.642;2023-09-08T14:43:35;31.10;54.10
81951;DHT22;71452;52.562;5.642;2023-09-08T14:46:04;31.10;54.10
81951;DHT22;71452;52.562;5.642;2023-09-08T14:48:33;31.10;54.20
81951;DHT22;71452;52.562;5.642;2023-09-08T14:51:02;31.10;54.30
81951;DHT22;71452;52.562;5.642;2023-09-08T14:53:34;31.20;54.30
81951;DHT22;71452;52.562;5.642;2023-09-08T14:56:04;31.20;54.40
81951;DHT22;71452;52.562;5.642;2023-09-08T14:58:33;31.20;54.30
81951;DHT22;71452;52.562;5.642;2023-09-08T15:01:03;31.20;54.20
81951;DHT22;71452;52.562;5.642;2023-09-08T15:03:34;31.10;54.00
81951;DHT22;71452;52.562;5.642;2023-09-08T15:06:03;31.10;54.50
81951;DHT22;71452;52.562;5.642;2023-09-08T15:08:35;31.00;54.80
81951;DHT22;71452;52.562;5.642;2023-09-08T15:11:04;31.00;54.70
81951;DHT22;71452;52.562;5.642;2023-09-08T15:13:33;31.00;54.70
81951;DHT22;71452;52.562;5.642;2023-09-08T15:16:02;31.00;54.70
81951;DHT22;71452;52.562;5.642;2023-09-08T15:18:31;30.90;55.00
81951;DHT22;71452;52.562;5.642;2023-09-08T15:21:00;30.80;55.20
81951;DHT22;71452;52.562;5.642;2023-09-08T15:23:29;30.80;55.20
81951;DHT22;71452;52.562;5.642;2023-09-08T15:26:01;30.80;55.20
81951;DHT22;71452;52.562;5.642;2023-09-08T15:28:30;30.70;55.30
81951;DHT22;71452;52.562;5.642;2023-09-08T15:30:59;30.60;55.50
81951;DHT22;71452;52.562;5.642;2023-09-08T15:33:29;30.60;55.60
81951;DHT22;71452;52.562;5.642;2023-09-08T15:35:58;30.60;55.70
81951;DHT22;71452;52.562;5.642;2023-09-08T15:38:27;30.70;55.80
81951;DHT22;71452;52.562;5.642;2023-09-08T15:41:25;30.70;55.70
81951;DHT22;71452;52.562;5.642;2023-09-08T15:43:54;30.70;55.90
81951;DHT22;71452;52.562;5.642;2023-09-08T15:46:24;30.70;56.00
81951;DHT22;71452;52.562;5.642;2023-09-08T15:48:53;30.70;56.00